FW1328 Weather Reports


time (UTC)temp
C
wind
direction
speed
KPH
gust
KPH
rain 1hr
cm
rain 24hr
cm
rain mn
cm
humidity
%
barometer
mb
20260510204539 20 9 8.0 19.3 0.00 0.00 0.00 42 1016.8
20260510203026 20 40 11.3 19.3 0.00 0.00 0.00 40 1016.9
20260510201523 20 63 3.2 14.5 0.00 0.00 0.00 44 1016.7
20260510200023 20 45 8.0 17.7 0.00 0.00 0.00 44 1017.0
20260510194522 20 74 9.7 16.1 0.00 0.00 0.00 42 1017.0
20260510193029 19 68 6.4 19.3 0.00 0.00 0.00 42 1017.0
20260510191520 20 36 11.3 20.9 0.00 0.00 0.00 41 1016.7
20260510190119 20 47 6.4 20.9 0.00 0.00 0.00 40 1016.7
20260510184518 20 74 4.8 17.7 0.00 0.00 0.00 40 1016.7
20260510183018 20 346 6.4 19.3 0.00 0.00 0.00 42 1016.6
20260510181529 20 59 12.9 24.1 0.00 0.00 0.00 40 1016.3
20260510180014 20 55 8.0 16.1 0.00 0.00 0.00 44 1016.4
20260510174511 20 28 3.2 19.3 0.00 0.00 0.00 43 1016.2
20260510173011 19 28 8.0 20.9 0.00 0.00 0.00 44 1016.4
20260510171510 19 43 9.7 20.9 0.00 0.00 0.00 43 1016.4
20260510170009 18 50 11.3 24.1 0.00 0.00 0.00 44 1016.5
20260510164515 19 355 11.3 22.5 0.00 0.00 0.00 41 1016.4
20260510163007 19 10 8.0 22.5 0.00 0.00 0.00 43 1016.2
20260510161503 18 37 11.3 22.5 0.00 0.00 0.00 46 1016.4
20260510160002 18 53 3.2 17.7 0.00 0.00 0.00 49 1016.6
20260510154601 18 23 4.8 12.9 0.00 0.00 0.00 53 1016.6
20260510153059 18 86 4.8 16.1 0.00 0.00 0.00 52 1016.6
20260510151603 17 29 8.0 17.7 0.00 0.00 0.00 54 1016.5
20260510150107 17 43 6.4 17.7 0.00 0.00 0.00 54 1016.4
20260510144605 17 40 6.4 17.7 0.00 0.00 0.00 57 1016.2
20260510143058 17 54 4.8 14.5 0.00 0.00 0.00 62 1016.0
20260510141548 16 70 9.7 20.9 0.00 0.00 0.00 64 1015.7
20260510140044 16 53 4.8 17.7 0.00 0.00 0.00 67 1015.2
20260510134545 15 61 8.0 22.5 0.00 0.00 0.00 70 1015.0
20260510133039 15 16 4.8 14.5 0.00 0.00 0.00 74 1015.1
20260510131545 14 76 8.0 16.1 0.00 0.00 0.00 77 1014.8
20260510130036 14 15 4.8 14.5 0.00 0.00 0.00 81 1014.7
20260510124539 14 33 6.4 16.1 0.00 0.00 0.00 82 1014.9
20260510123031 14 29 4.8 14.5 0.00 0.00 0.00 85 1014.4
20260510121536 14 51 3.2 12.9 0.00 0.00 0.00 87 1014.0
20260510120032 14 26 6.4 14.5 0.00 0.00 0.00 88 1014.2
20260510114525 14 31 4.8 12.9 0.00 0.00 0.00 89 1013.6
20260510113023 15 5 3.2 12.9 0.00 0.00 0.00 89 1013.5
20260510111522 15 24 4.8 16.1 0.00 0.00 0.00 90 1013.3
20260510110018 15 13 3.2 9.7 0.00 0.00 0.00 94 1012.5
20260510104516 15 60 3.2 14.5 0.00 0.00 0.00 95 1012.2
20260510103013 15 24 3.2 8.0 0.00 0.00 0.00 95 1012.1
20260510101513 15 25 1.6 9.7 0.00 0.00 0.00 95 1011.8
20260510100012 15 24 3.2 6.4 0.00 0.00 0.00 94 1011.9
20260510094511 15 338 1.6 9.7 0.00 0.00 0.00 94 1012.0
20260510093011 15 315 6.4 14.5 0.00 0.00 0.00 93 1012.1
20260510091508 15 29 0.0 4.8 0.00 0.00 0.00 93 1011.1
20260510090006 15 31 1.6 8.0 0.00 0.00 0.00 93 1011.2
20260510084505 16 5 4.8 6.4 0.00 0.00 0.00 92 1011.2
20260510083002 16 67 1.6 3.2 0.00 0.00 0.00 91 1010.8
20260510081559 16 67 0.0 3.2 0.00 0.00 0.00 90 1010.4
20260510080104 16 67 1.6 4.8 0.00 0.00 0.00 89 1010.3
20260510074556 16 32 1.6 12.9 0.00 0.00 0.00 87 1010.5
20260510073113 17 5 3.2 12.9 0.00 0.00 0.00 84 1010.7
20260510071552 17 334 1.6 4.8 0.00 0.00 0.00 83 1010.2
20260510070056 17 331 3.2 8.0 0.00 0.00 0.00 82 1010.7
20260510064609 17 103 0.0 3.2 0.00 0.00 0.00 80 1010.2
20260510063043 18 103 0.0 1.6 0.00 0.00 0.00 78 1010.1
20260510061542 18 103 1.6 4.8 0.00 0.00 0.00 77 1010.0
20260510060041 18 103 0.0 4.8 0.00 0.00 0.00 77 1009.8
20260510054543 18 103 3.2 6.4 0.00 0.00 0.00 76 1009.7
20260510053044 18 99 1.6 4.8 0.00 0.00 0.00 76 1009.7
20260510051547 18 98 1.6 6.4 0.00 0.00 0.00 75 1009.7
20260510050037 19 26 1.6 6.4 0.00 0.00 0.00 74 1009.4
20260510044530 19 30 1.6 4.8 0.00 0.05 0.00 72 1008.8
20260510043030 19 5 1.6 8.0 0.00 0.05 0.00 71 1008.8
20260510041531 20 10 3.2 9.7 0.00 0.05 0.00 70 1008.7
20260510040029 20 5 4.8 12.9 0.00 0.05 0.00 67 1008.6
20260510034528 20 339 6.4 16.1 0.00 0.10 0.00 64 1008.9
20260510033025 20 322 3.2 8.0 0.00 0.10 0.00 63 1008.1
20260510031530 20 202 4.8 9.7 0.00 0.10 0.00 62 1007.7
20260510030024 20 216 4.8 9.7 0.00 0.10 0.00 61 1007.6
20260510024524 21 199 4.8 9.7 0.00 0.18 0.00 59 1007.4
20260510023024 21 217 4.8 9.7 0.00 0.18 0.00 58 1007.3
20260510021529 22 202 3.2 8.0 0.00 0.18 0.00 57 1007.1
20260510020029 22 205 3.2 9.7 0.00 0.18 0.00 55 1006.8
20260510014522 22 202 3.2 8.0 0.00 0.20 0.00 55 1006.7
20260510013021 23 194 3.2 6.4 0.00 0.20 0.00 54 1006.5
20260510011522 23 206 3.2 6.4 0.00 0.20 0.00 52 1006.4
20260510010020 23 214 3.2 8.0 0.00 0.20 0.00 51 1006.3
20260510004520 25 220 3.2 8.0 0.00 0.30 0.00 47 1006.2
20260510003021 25 242 3.2 6.4 0.00 0.30 0.00 46 1006.2
20260510001520 26 248 3.2 8.0 0.00 0.30 0.00 44 1006.0
20260510000020 26 290 3.2 6.4 0.00 0.30 0.00 43 1006.0
20260509234518 26 293 4.8 11.3 0.00 0.30 0.00 41 1006.0
20260509233020 26 269 4.8 12.9 0.00 0.30 0.00 41 1006.0
20260509231517 26 277 9.7 17.7 0.00 0.30 0.00 39 1006.0
20260509230016 26 292 4.8 24.1 0.00 0.30 0.00 41 1006.1
20260509224514 27 263 14.5 20.9 0.00 0.30 0.00 39 1006.0
20260509223014 27 282 16.1 24.1 0.00 0.30 0.00 39 1006.0
20260509221514 27 5 4.8 19.3 0.00 0.30 0.00 39 1005.9
20260509220012 27 313 9.7 24.1 0.00 0.30 0.00 39 1006.0
20260509214509 27 318 11.3 17.7 0.00 0.30 0.00 38 1005.9
20260509213013 26 317 12.9 24.1 0.00 0.30 0.00 39 1006.0
20260509211508 26 288 14.5 27.4 0.00 0.30 0.00 40 1006.0
20260509210006 26 299 14.5 25.7 0.00 0.30 0.00 42 1006.1